This is the latest recevied weather packets stored in our database for station/object AC2JK-WX. If no packets are shown the sender has not sent any weather packets the latest 10 day(s).
| Time | Temp. | Humidity | Pressure | Rain* | Wind** | Luminosity | Snow |
|---|---|---|---|---|---|---|---|
| 1777577829 | 7.78° C | 80% | 1013 hPa | 0 mm | - | - | - |
| 1777577529 | 7.78° C | 79% | 1013 hPa | 0 mm | - | - | - |
| 1777577232 | 7.78° C | 77% | 1013 hPa | 0 mm | - | - | - |
| 1777576930 | 8.33° C | 76% | 1013 hPa | 0 mm | - | - | - |
| 1777576632 | 8.33° C | 75% | 1013 hPa | 0 mm | - | - | - |
| 1777576330 | 8.89° C | 74% | 1013 hPa | 0 mm | - | - | - |
| 1777576030 | 8.89° C | 74% | 1012 hPa | 0 mm | - | - | - |
| 1777575729 | 8.89° C | 73% | 1013 hPa | 0 mm | - | - | - |
| 1777575430 | 8.89° C | 73% | 1012 hPa | 0 mm | - | - | - |
| 1777575130 | 8.89° C | 73% | 1012 hPa | 0 mm | - | - | - |
| 1777574830 | 9.44° C | 72% | 1012 hPa | 0 mm | - | - | - |
| 1777574529 | 9.44° C | 71% | 1012 hPa | 0 mm | - | - | - |
| 1777574229 | 9.44° C | 70% | 1012 hPa | 0 mm | - | - | - |
| 1777573930 | 10.56° C | 67% | 1012 hPa | 0 mm | - | - | - |
| 1777573629 | 10.56° C | 65% | 1012 hPa | 0 mm | - | - | - |
| 1777573330 | 11.11° C | 60% | 1012 hPa | 0 mm | - | - | - |
| 1777573030 | 11.11° C | 61% | 1012 hPa | 0 mm | - | - | - |
| 1777572730 | 11.11° C | 59% | 1012 hPa | 0 mm | - | - | - |
| 1777572430 | 11.67° C | 58% | 1012 hPa | 0 mm | - | - | - |
| 1777572130 | 11.11° C | 60% | 1012 hPa | 0 mm | - | - | - |
| 1777571830 | 10.56° C | 62% | 1012 hPa | 0 mm | - | - | - |
| 1777571529 | 10.56° C | 63% | 1012 hPa | 0 mm | - | - | - |
| 1777571230 | 10° C | 64% | 1012 hPa | 0 mm | - | - | - |
| 1777570929 | 10° C | 63% | 1012 hPa | 0 mm | - | - | - |
| 1777570629 | 10° C | 61% | 1012 hPa | 0 mm | - | - | - |
* Rain latest hour (hover to see other rain measurements)
** Current wind speed in m/s (hover to see current wind gust speed)